Newsom, North Carolina
Current Conditions -  °F | °C
As of 6:55 AM on Thursday 25 Dec 2014 (Local Time) from KHBI Reporting Station
Scattered Clouds Scattered Clouds  
Wind Chill: 49°   Ceiling: Unl
Heat Index: 49°   Visibility: 10mi
Dew Point: 37°   Wind: 3mph
Humidity: 63%   Direction: 270°W
Pressure: 29.95"   Gusts: NA
Location:  35.6015°N, 80.0858°W
Report Text: KHBI 251155Z AUTO 27003KT 10SM SCT049 10/03 A2995 RMK AO2 70056 T00950028 10150 20095
Loading
Personal Weather Stations






























Interactive Weather Map New forecast layout! Learn more

10-Day Weather Forecast

Advertisements
Track Severe Weather on mobile